sensor_id;sensor_type;location;lat;lon;timestamp;P1;durP1;ratioP1;P2;durP2;ratioP2
64199;SDS011;50516;52.272;5.136;2022-08-23T00:01:14;9.48;;;4.90;;
64199;SDS011;50516;52.272;5.136;2022-08-23T00:03:45;9.25;;;4.40;;
64199;SDS011;50516;52.272;5.136;2022-08-23T00:06:11;10.85;;;4.75;;
64199;SDS011;50516;52.272;5.136;2022-08-23T00:08:38;11.20;;;4.70;;
64199;SDS011;50516;52.272;5.136;2022-08-23T00:11:04;9.85;;;5.43;;
64199;SDS011;50516;52.272;5.136;2022-08-23T00:13:30;10.48;;;4.72;;
64199;SDS011;50516;52.272;5.136;2022-08-23T00:15:57;12.57;;;4.90;;
64199;SDS011;50516;52.272;5.136;2022-08-23T00:18:24;14.52;;;5.65;;
64199;SDS011;50516;52.272;5.136;2022-08-23T00:20:50;13.88;;;5.30;;
64199;SDS011;50516;52.272;5.136;2022-08-23T00:23:19;11.15;;;5.38;;
64199;SDS011;50516;52.272;5.136;2022-08-23T00:25:44;10.35;;;4.47;;
64199;SDS011;50516;52.272;5.136;2022-08-23T00:28:10;11.05;;;4.88;;
64199;SDS011;50516;52.272;5.136;2022-08-23T00:30:35;15.10;;;5.30;;
64199;SDS011;50516;52.272;5.136;2022-08-23T00:33:01;12.30;;;5.43;;
64199;SDS011;50516;52.272;5.136;2022-08-23T00:35:29;12.27;;;5.63;;
64199;SDS011;50516;52.272;5.136;2022-08-23T00:37:55;7.55;;;4.93;;
64199;SDS011;50516;52.272;5.136;2022-08-23T00:40:21;12.88;;;5.70;;
64199;SDS011;50516;52.272;5.136;2022-08-23T00:43:04;13.30;;;5.32;;
64199;SDS011;50516;52.272;5.136;2022-08-23T00:48:56;10.13;;;4.97;;
64199;SDS011;50516;52.272;5.136;2022-08-23T00:51:33;9.50;;;4.95;;
64199;SDS011;50516;52.272;5.136;2022-08-23T00:54:05;10.73;;;5.50;;
64199;SDS011;50516;52.272;5.136;2022-08-23T00:56:33;8.25;;;5.13;;
64199;SDS011;50516;52.272;5.136;2022-08-23T00:59:00;16.05;;;5.60;;
64199;SDS011;50516;52.272;5.136;2022-08-23T01:01:26;12.27;;;5.72;;
64199;SDS011;50516;52.272;5.136;2022-08-23T01:03:53;11.15;;;5.47;;
64199;SDS011;50516;52.272;5.136;2022-08-23T01:06:26;11.48;;;4.53;;
64199;SDS011;50516;52.272;5.136;2022-08-23T01:09:05;14.20;;;5.50;;
64199;SDS011;50516;52.272;5.136;2022-08-23T01:14:10;12.32;;;5.80;;
64199;SDS011;50516;52.272;5.136;2022-08-23T01:16:46;12.15;;;5.70;;
64199;SDS011;50516;52.272;5.136;2022-08-23T01:19:23;10.52;;;5.85;;
64199;SDS011;50516;52.272;5.136;2022-08-23T01:22:00;9.82;;;5.55;;
64199;SDS011;50516;52.272;5.136;2022-08-23T01:24:33;12.13;;;6.03;;
64199;SDS011;50516;52.272;5.136;2022-08-23T01:26:59;11.32;;;6.20;;
64199;SDS011;50516;52.272;5.136;2022-08-23T01:29:25;13.13;;;5.50;;
64199;SDS011;50516;52.272;5.136;2022-08-23T01:31:50;9.82;;;5.18;;
64199;SDS011;50516;52.272;5.136;2022-08-23T01:34:16;18.20;;;6.05;;
64199;SDS011;50516;52.272;5.136;2022-08-23T01:36:42;12.57;;;5.15;;
64199;SDS011;50516;52.272;5.136;2022-08-23T01:39:09;11.55;;;5.25;;
64199;SDS011;50516;52.272;5.136;2022-08-23T01:41:34;10.70;;;5.35;;
64199;SDS011;50516;52.272;5.136;2022-08-23T01:44:03;10.93;;;4.22;;
64199;SDS011;50516;52.272;5.136;2022-08-23T01:46:30;13.27;;;5.28;;
64199;SDS011;50516;52.272;5.136;2022-08-23T01:48:56;10.18;;;4.85;;
64199;SDS011;50516;52.272;5.136;2022-08-23T01:51:22;9.68;;;5.15;;
64199;SDS011;50516;52.272;5.136;2022-08-23T01:53:48;9.02;;;4.50;;
64199;SDS011;50516;52.272;5.136;2022-08-23T01:56:15;11.88;;;5.20;;
64199;SDS011;50516;52.272;5.136;2022-08-23T01:58:44;12.15;;;5.72;;
64199;SDS011;50516;52.272;5.136;2022-08-23T02:01:10;6.97;;;4.40;;
64199;SDS011;50516;52.272;5.136;2022-08-23T02:03:35;9.18;;;4.60;;
64199;SDS011;50516;52.272;5.136;2022-08-23T02:06:01;9.48;;;4.57;;
64199;SDS011;50516;52.272;5.136;2022-08-23T02:08:28;7.85;;;4.40;;
64199;SDS011;50516;52.272;5.136;2022-08-23T02:11:15;8.75;;;4.38;;
64199;SDS011;50516;52.272;5.136;2022-08-23T02:13:43;12.10;;;4.82;;
64199;SDS011;50516;52.272;5.136;2022-08-23T02:16:09;13.73;;;6.50;;
64199;SDS011;50516;52.272;5.136;2022-08-23T02:18:35;10.25;;;4.70;;
64199;SDS011;50516;52.272;5.136;2022-08-23T02:21:00;13.20;;;6.03;;
64199;SDS011;50516;52.272;5.136;2022-08-23T02:23:27;11.85;;;5.43;;
64199;SDS011;50516;52.272;5.136;2022-08-23T02:25:53;9.07;;;5.40;;
64199;SDS011;50516;52.272;5.136;2022-08-23T02:28:19;15.27;;;5.78;;
64199;SDS011;50516;52.272;5.136;2022-08-23T02:30:45;10.38;;;5.78;;
64199;SDS011;50516;52.272;5.136;2022-08-23T02:33:14;10.68;;;5.95;;
64199;SDS011;50516;52.272;5.136;2022-08-23T02:35:39;10.20;;;6.45;;
64199;SDS011;50516;52.272;5.136;2022-08-23T02:38:06;9.05;;;5.28;;
64199;SDS011;50516;52.272;5.136;2022-08-23T02:40:33;12.10;;;5.22;;
64199;SDS011;50516;52.272;5.136;2022-08-23T02:42:59;14.82;;;6.22;;
64199;SDS011;50516;52.272;5.136;2022-08-23T02:45:25;10.82;;;5.75;;
64199;SDS011;50516;52.272;5.136;2022-08-23T02:47:51;9.60;;;6.03;;
64199;SDS011;50516;52.272;5.136;2022-08-23T02:50:17;8.98;;;5.78;;
64199;SDS011;50516;52.272;5.136;2022-08-23T02:52:43;8.95;;;5.40;;
64199;SDS011;50516;52.272;5.136;2022-08-23T02:55:09;11.18;;;6.18;;
64199;SDS011;50516;52.272;5.136;2022-08-23T02:57:35;10.63;;;6.55;;
64199;SDS011;50516;52.272;5.136;2022-08-23T03:00:00;12.35;;;6.18;;
64199;SDS011;50516;52.272;5.136;2022-08-23T03:02:26;11.40;;;5.65;;
64199;SDS011;50516;52.272;5.136;2022-08-23T03:04:53;13.13;;;5.70;;
64199;SDS011;50516;52.272;5.136;2022-08-23T03:07:18;11.45;;;6.32;;
64199;SDS011;50516;52.272;5.136;2022-08-23T03:09:43;13.43;;;6.57;;
64199;SDS011;50516;52.272;5.136;2022-08-23T03:12:09;9.57;;;5.55;;
64199;SDS011;50516;52.272;5.136;2022-08-23T03:14:35;9.77;;;5.60;;
64199;SDS011;50516;52.272;5.136;2022-08-23T03:17:04;9.18;;;5.97;;
64199;SDS011;50516;52.272;5.136;2022-08-23T03:19:31;13.75;;;6.95;;
64199;SDS011;50516;52.272;5.136;2022-08-23T03:21:57;13.68;;;5.93;;
64199;SDS011;50516;52.272;5.136;2022-08-23T03:24:22;9.77;;;5.43;;
64199;SDS011;50516;52.272;5.136;2022-08-23T03:26:48;13.00;;;6.60;;
64199;SDS011;50516;52.272;5.136;2022-08-23T03:29:13;13.82;;;6.18;;
64199;SDS011;50516;52.272;5.136;2022-08-23T03:31:39;12.82;;;6.60;;
64199;SDS011;50516;52.272;5.136;2022-08-23T03:34:04;10.65;;;6.03;;
64199;SDS011;50516;52.272;5.136;2022-08-23T03:36:30;11.35;;;6.18;;
64199;SDS011;50516;52.272;5.136;2022-08-23T03:38:56;11.57;;;6.55;;
64199;SDS011;50516;52.272;5.136;2022-08-23T03:41:22;10.88;;;6.18;;
64199;SDS011;50516;52.272;5.136;2022-08-23T03:43:47;11.70;;;6.70;;
64199;SDS011;50516;52.272;5.136;2022-08-23T03:46:12;9.57;;;5.60;;
64199;SDS011;50516;52.272;5.136;2022-08-23T03:48:47;10.27;;;5.97;;
64199;SDS011;50516;52.272;5.136;2022-08-23T03:51:16;12.20;;;6.90;;
64199;SDS011;50516;52.272;5.136;2022-08-23T03:53:42;9.48;;;6.07;;
64199;SDS011;50516;52.272;5.136;2022-08-23T03:56:07;16.95;;;7.50;;
64199;SDS011;50516;52.272;5.136;2022-08-23T03:58:33;9.30;;;6.13;;
64199;SDS011;50516;52.272;5.136;2022-08-23T04:00:58;12.15;;;6.00;;
64199;SDS011;50516;52.272;5.136;2022-08-23T04:03:23;10.40;;;5.90;;
64199;SDS011;50516;52.272;5.136;2022-08-23T04:05:49;11.32;;;5.82;;
64199;SDS011;50516;52.272;5.136;2022-08-23T04:08:15;10.93;;;6.03;;
64199;SDS011;50516;52.272;5.136;2022-08-23T04:10:40;7.35;;;5.65;;
64199;SDS011;50516;52.272;5.136;2022-08-23T04:13:06;15.45;;;6.63;;
64199;SDS011;50516;52.272;5.136;2022-08-23T04:15:33;11.13;;;6.20;;
64199;SDS011;50516;52.272;5.136;2022-08-23T04:17:59;9.63;;;6.45;;
64199;SDS011;50516;52.272;5.136;2022-08-23T04:20:25;10.35;;;5.90;;
64199;SDS011;50516;52.272;5.136;2022-08-23T04:22:51;10.60;;;5.88;;
64199;SDS011;50516;52.272;5.136;2022-08-23T04:25:20;13.43;;;6.38;;
64199;SDS011;50516;52.272;5.136;2022-08-23T04:27:47;10.60;;;5.90;;
64199;SDS011;50516;52.272;5.136;2022-08-23T04:30:13;11.68;;;5.90;;
64199;SDS011;50516;52.272;5.136;2022-08-23T04:32:38;10.27;;;5.72;;
64199;SDS011;50516;52.272;5.136;2022-08-23T04:35:05;9.00;;;5.50;;
64199;SDS011;50516;52.272;5.136;2022-08-23T04:37:30;11.98;;;6.28;;
64199;SDS011;50516;52.272;5.136;2022-08-23T04:39:56;9.52;;;5.18;;
64199;SDS011;50516;52.272;5.136;2022-08-23T04:42:40;10.25;;;5.70;;
64199;SDS011;50516;52.272;5.136;2022-08-23T04:45:05;8.80;;;5.63;;
64199;SDS011;50516;52.272;5.136;2022-08-23T04:47:31;11.75;;;5.30;;
64199;SDS011;50516;52.272;5.136;2022-08-23T04:49:57;12.57;;;5.78;;
64199;SDS011;50516;52.272;5.136;2022-08-23T04:52:22;9.75;;;5.32;;
64199;SDS011;50516;52.272;5.136;2022-08-23T04:54:47;11.68;;;5.78;;
64199;SDS011;50516;52.272;5.136;2022-08-23T04:57:13;9.45;;;5.60;;
64199;SDS011;50516;52.272;5.136;2022-08-23T04:59:39;11.48;;;5.90;;
64199;SDS011;50516;52.272;5.136;2022-08-23T05:02:04;9.43;;;5.60;;
64199;SDS011;50516;52.272;5.136;2022-08-23T05:04:30;12.13;;;5.90;;
64199;SDS011;50516;52.272;5.136;2022-08-23T05:06:55;7.05;;;5.30;;
64199;SDS011;50516;52.272;5.136;2022-08-23T05:09:20;7.97;;;5.70;;
64199;SDS011;50516;52.272;5.136;2022-08-23T05:11:48;9.57;;;5.60;;
64199;SDS011;50516;52.272;5.136;2022-08-23T05:14:14;9.00;;;6.30;;
64199;SDS011;50516;52.272;5.136;2022-08-23T05:16:39;8.98;;;5.35;;
64199;SDS011;50516;52.272;5.136;2022-08-23T05:19:05;14.50;;;7.35;;
64199;SDS011;50516;52.272;5.136;2022-08-23T05:21:30;11.57;;;5.22;;
64199;SDS011;50516;52.272;5.136;2022-08-23T05:23:55;8.85;;;5.82;;
64199;SDS011;50516;52.272;5.136;2022-08-23T05:26:21;11.93;;;6.22;;
64199;SDS011;50516;52.272;5.136;2022-08-23T05:28:47;10.95;;;5.85;;
64199;SDS011;50516;52.272;5.136;2022-08-23T05:31:15;12.32;;;6.28;;
64199;SDS011;50516;52.272;5.136;2022-08-23T05:33:42;13.50;;;5.65;;
64199;SDS011;50516;52.272;5.136;2022-08-23T05:36:08;11.68;;;5.65;;
64199;SDS011;50516;52.272;5.136;2022-08-23T05:38:36;9.27;;;5.65;;
64199;SDS011;50516;52.272;5.136;2022-08-23T05:41:02;13.60;;;6.50;;
64199;SDS011;50516;52.272;5.136;2022-08-23T05:43:28;11.15;;;6.18;;
64199;SDS011;50516;52.272;5.136;2022-08-23T05:46:00;10.50;;;5.68;;
64199;SDS011;50516;52.272;5.136;2022-08-23T05:48:31;13.98;;;6.47;;
64199;SDS011;50516;52.272;5.136;2022-08-23T05:51:14;10.52;;;5.85;;
64199;SDS011;50516;52.272;5.136;2022-08-23T05:53:42;13.27;;;7.07;;
64199;SDS011;50516;52.272;5.136;2022-08-23T05:56:09;10.52;;;6.38;;
64199;SDS011;50516;52.272;5.136;2022-08-23T05:58:37;14.95;;;5.93;;
64199;SDS011;50516;52.272;5.136;2022-08-23T06:01:03;11.30;;;6.45;;
64199;SDS011;50516;52.272;5.136;2022-08-23T06:03:28;12.45;;;5.63;;
64199;SDS011;50516;52.272;5.136;2022-08-23T06:05:57;16.52;;;7.57;;
64199;SDS011;50516;52.272;5.136;2022-08-23T06:08:23;13.07;;;6.03;;
64199;SDS011;50516;52.272;5.136;2022-08-23T06:10:48;11.77;;;7.47;;
64199;SDS011;50516;52.272;5.136;2022-08-23T06:13:14;15.65;;;7.38;;
64199;SDS011;50516;52.272;5.136;2022-08-23T06:15:42;8.73;;;5.47;;
64199;SDS011;50516;52.272;5.136;2022-08-23T06:18:08;10.65;;;7.05;;
64199;SDS011;50516;52.272;5.136;2022-08-23T06:20:34;14.68;;;6.55;;
64199;SDS011;50516;52.272;5.136;2022-08-23T06:23:00;18.42;;;6.85;;
64199;SDS011;50516;52.272;5.136;2022-08-23T06:25:25;15.85;;;8.10;;
64199;SDS011;50516;52.272;5.136;2022-08-23T06:27:51;12.00;;;7.32;;
64199;SDS011;50516;52.272;5.136;2022-08-23T06:30:16;11.15;;;6.68;;
64199;SDS011;50516;52.272;5.136;2022-08-23T06:32:42;11.18;;;6.75;;
64199;SDS011;50516;52.272;5.136;2022-08-23T06:35:07;11.27;;;6.50;;
64199;SDS011;50516;52.272;5.136;2022-08-23T06:37:33;14.25;;;6.78;;
64199;SDS011;50516;52.272;5.136;2022-08-23T06:39:59;15.40;;;7.15;;
64199;SDS011;50516;52.272;5.136;2022-08-23T06:42:24;9.88;;;6.68;;
64199;SDS011;50516;52.272;5.136;2022-08-23T06:44:49;11.95;;;6.60;;
64199;SDS011;50516;52.272;5.136;2022-08-23T06:47:15;9.68;;;5.93;;
64199;SDS011;50516;52.272;5.136;2022-08-23T06:49:40;13.98;;;6.70;;
64199;SDS011;50516;52.272;5.136;2022-08-23T06:52:06;11.88;;;6.88;;
64199;SDS011;50516;52.272;5.136;2022-08-23T06:54:40;8.15;;;5.40;;
64199;SDS011;50516;52.272;5.136;2022-08-23T06:57:10;13.13;;;6.55;;
64199;SDS011;50516;52.272;5.136;2022-08-23T06:59:36;14.80;;;6.63;;
64199;SDS011;50516;52.272;5.136;2022-08-23T07:02:03;12.27;;;5.55;;
64199;SDS011;50516;52.272;5.136;2022-08-23T07:04:32;14.05;;;6.63;;
64199;SDS011;50516;52.272;5.136;2022-08-23T07:07:00;12.65;;;4.90;;
64199;SDS011;50516;52.272;5.136;2022-08-23T07:09:27;9.20;;;4.85;;
64199;SDS011;50516;52.272;5.136;2022-08-23T07:11:53;10.80;;;5.45;;
64199;SDS011;50516;52.272;5.136;2022-08-23T07:14:19;11.95;;;5.63;;
64199;SDS011;50516;52.272;5.136;2022-08-23T07:16:47;12.80;;;6.05;;
64199;SDS011;50516;52.272;5.136;2022-08-23T07:19:16;12.48;;;6.82;;
64199;SDS011;50516;52.272;5.136;2022-08-23T07:21:44;9.90;;;5.93;;
64199;SDS011;50516;52.272;5.136;2022-08-23T07:24:09;14.52;;;6.18;;
64199;SDS011;50516;52.272;5.136;2022-08-23T07:26:35;14.50;;;5.50;;
64199;SDS011;50516;52.272;5.136;2022-08-23T07:29:02;12.23;;;5.45;;
64199;SDS011;50516;52.272;5.136;2022-08-23T07:31:30;13.80;;;6.80;;
64199;SDS011;50516;52.272;5.136;2022-08-23T07:33:58;14.48;;;5.63;;
64199;SDS011;50516;52.272;5.136;2022-08-23T07:36:29;12.32;;;6.35;;
64199;SDS011;50516;52.272;5.136;2022-08-23T07:38:59;12.43;;;5.95;;
64199;SDS011;50516;52.272;5.136;2022-08-23T07:41:27;13.18;;;5.70;;
64199;SDS011;50516;52.272;5.136;2022-08-23T07:43:56;14.02;;;6.63;;
64199;SDS011;50516;52.272;5.136;2022-08-23T07:46:24;11.23;;;5.47;;
64199;SDS011;50516;52.272;5.136;2022-08-23T07:48:50;12.43;;;5.85;;
64199;SDS011;50516;52.272;5.136;2022-08-23T07:51:16;11.23;;;4.82;;
64199;SDS011;50516;52.272;5.136;2022-08-23T07:53:42;12.70;;;5.75;;
64199;SDS011;50516;52.272;5.136;2022-08-23T07:56:08;11.73;;;6.10;;
64199;SDS011;50516;52.272;5.136;2022-08-23T07:58:35;11.60;;;5.47;;
64199;SDS011;50516;52.272;5.136;2022-08-23T08:01:11;17.30;;;6.85;;
64199;SDS011;50516;52.272;5.136;2022-08-23T08:03:46;16.80;;;7.70;;
64199;SDS011;50516;52.272;5.136;2022-08-23T08:06:15;15.07;;;5.97;;
64199;SDS011;50516;52.272;5.136;2022-08-23T08:08:46;16.63;;;6.55;;
64199;SDS011;50516;52.272;5.136;2022-08-23T08:11:13;21.67;;;6.57;;
64199;SDS011;50516;52.272;5.136;2022-08-23T08:13:43;16.48;;;7.88;;
64199;SDS011;50516;52.272;5.136;2022-08-23T08:16:10;17.85;;;6.55;;
64199;SDS011;50516;52.272;5.136;2022-08-23T08:18:44;19.27;;;8.38;;
64199;SDS011;50516;52.272;5.136;2022-08-23T08:21:12;18.50;;;6.78;;
64199;SDS011;50516;52.272;5.136;2022-08-23T08:23:38;15.88;;;6.72;;
64199;SDS011;50516;52.272;5.136;2022-08-23T08:26:05;20.20;;;8.02;;
64199;SDS011;50516;52.272;5.136;2022-08-23T08:28:34;18.00;;;7.40;;
64199;SDS011;50516;52.272;5.136;2022-08-23T08:31:00;18.90;;;7.60;;
64199;SDS011;50516;52.272;5.136;2022-08-23T08:33:27;16.75;;;6.97;;
64199;SDS011;50516;52.272;5.136;2022-08-23T08:35:52;18.40;;;6.82;;
64199;SDS011;50516;52.272;5.136;2022-08-23T08:38:18;15.77;;;8.75;;
64199;SDS011;50516;52.272;5.136;2022-08-23T08:40:43;18.67;;;7.43;;
64199;SDS011;50516;52.272;5.136;2022-08-23T08:48:50;15.43;;;10.20;;
64199;SDS011;50516;52.272;5.136;2022-08-23T08:53:54;18.83;;;6.88;;
64199;SDS011;50516;52.272;5.136;2022-08-23T08:56:34;25.90;;;8.10;;
64199;SDS011;50516;52.272;5.136;2022-08-23T08:59:04;14.10;;;10.02;;
64199;SDS011;50516;52.272;5.136;2022-08-23T09:01:32;22.17;;;9.35;;
64199;SDS011;50516;52.272;5.136;2022-08-23T09:04:00;18.83;;;10.10;;
64199;SDS011;50516;52.272;5.136;2022-08-23T09:09:19;22.02;;;8.13;;
64199;SDS011;50516;52.272;5.136;2022-08-23T09:12:21;25.65;;;8.55;;
64199;SDS011;50516;52.272;5.136;2022-08-23T09:15:11;16.35;;;10.57;;
64199;SDS011;50516;52.272;5.136;2022-08-23T09:20:22;22.60;;;9.70;;
64199;SDS011;50516;52.272;5.136;2022-08-23T09:23:08;18.38;;;6.93;;
64199;SDS011;50516;52.272;5.136;2022-08-23T09:25:39;14.82;;;8.45;;
64199;SDS011;50516;52.272;5.136;2022-08-23T09:28:05;17.27;;;7.88;;
64199;SDS011;50516;52.272;5.136;2022-08-23T09:31:13;15.38;;;6.65;;
64199;SDS011;50516;52.272;5.136;2022-08-23T09:33:23;14.90;;;6.30;;
64199;SDS011;50516;52.272;5.136;2022-08-23T09:38:54;12.80;;;6.68;;
64199;SDS011;50516;52.272;5.136;2022-08-23T09:41:46;17.85;;;8.15;;
64199;SDS011;50516;52.272;5.136;2022-08-23T09:44:12;8.10;;;3.58;;
64199;SDS011;50516;52.272;5.136;2022-08-23T09:46:41;11.35;;;5.30;;
64199;SDS011;50516;52.272;5.136;2022-08-23T09:49:28;15.13;;;5.63;;
64199;SDS011;50516;52.272;5.136;2022-08-23T09:51:54;10.50;;;4.25;;
64199;SDS011;50516;52.272;5.136;2022-08-23T09:54:33;11.77;;;6.00;;
64199;SDS011;50516;52.272;5.136;2022-08-23T09:57:06;12.57;;;6.18;;
64199;SDS011;50516;52.272;5.136;2022-08-23T09:59:45;12.40;;;4.97;;
64199;SDS011;50516;52.272;5.136;2022-08-23T10:02:30;12.13;;;4.30;;
64199;SDS011;50516;52.272;5.136;2022-08-23T10:05:05;11.05;;;5.47;;
64199;SDS011;50516;52.272;5.136;2022-08-23T10:07:43;7.80;;;3.65;;
64199;SDS011;50516;52.272;5.136;2022-08-23T10:10:31;12.55;;;4.65;;
64199;SDS011;50516;52.272;5.136;2022-08-23T10:13:03;12.10;;;4.55;;
64199;SDS011;50516;52.272;5.136;2022-08-23T10:18:19;10.85;;;3.92;;
64199;SDS011;50516;52.272;5.136;2022-08-23T10:21:04;10.68;;;3.70;;
64199;SDS011;50516;52.272;5.136;2022-08-23T10:26:50;8.18;;;3.22;;
64199;SDS011;50516;52.272;5.136;2022-08-23T10:29:33;10.83;;;3.30;;
64199;SDS011;50516;52.272;5.136;2022-08-23T10:32:11;10.32;;;3.47;;
64199;SDS011;50516;52.272;5.136;2022-08-23T10:39:58;8.27;;;3.97;;
64199;SDS011;50516;52.272;5.136;2022-08-23T10:45:15;8.50;;;3.28;;
64199;SDS011;50516;52.272;5.136;2022-08-23T10:47:51;13.30;;;3.70;;
64199;SDS011;50516;52.272;5.136;2022-08-23T10:50:22;6.95;;;3.40;;
64199;SDS011;50516;52.272;5.136;2022-08-23T10:52:54;11.00;;;4.35;;
64199;SDS011;50516;52.272;5.136;2022-08-23T10:55:33;10.38;;;3.80;;
64199;SDS011;50516;52.272;5.136;2022-08-23T10:58:20;10.30;;;4.00;;
64199;SDS011;50516;52.272;5.136;2022-08-23T11:00:49;9.93;;;4.93;;
64199;SDS011;50516;52.272;5.136;2022-08-23T11:03:22;8.75;;;4.00;;
64199;SDS011;50516;52.272;5.136;2022-08-23T11:14:08;14.80;;;4.13;;
64199;SDS011;50516;52.272;5.136;2022-08-23T11:16:36;10.57;;;3.40;;
64199;SDS011;50516;52.272;5.136;2022-08-23T11:19:10;11.13;;;4.03;;
64199;SDS011;50516;52.272;5.136;2022-08-23T11:31:31;9.80;;;4.53;;
64199;SDS011;50516;52.272;5.136;2022-08-23T11:34:10;8.63;;;3.50;;
64199;SDS011;50516;52.272;5.136;2022-08-23T11:48:37;6.43;;;3.08;;
64199;SDS011;50516;52.272;5.136;2022-08-23T12:01:33;8.18;;;3.75;;
64199;SDS011;50516;52.272;5.136;2022-08-23T12:04:03;11.20;;;3.85;;
64199;SDS011;50516;52.272;5.136;2022-08-23T12:06:39;7.68;;;3.60;;
64199;SDS011;50516;52.272;5.136;2022-08-23T12:19:57;8.95;;;4.22;;
64199;SDS011;50516;52.272;5.136;2022-08-23T12:22:26;7.38;;;3.30;;
64199;SDS011;50516;52.272;5.136;2022-08-23T12:25:17;11.10;;;3.72;;
64199;SDS011;50516;52.272;5.136;2022-08-23T12:30:56;6.90;;;3.25;;
64199;SDS011;50516;52.272;5.136;2022-08-23T12:33:31;9.23;;;3.13;;
64199;SDS011;50516;52.272;5.136;2022-08-23T12:36:09;8.00;;;3.25;;
64199;SDS011;50516;52.272;5.136;2022-08-23T12:41:50;21.45;;;3.47;;
64199;SDS011;50516;52.272;5.136;2022-08-23T12:44:28;10.63;;;3.20;;
64199;SDS011;50516;52.272;5.136;2022-08-23T12:46:54;11.10;;;2.75;;
64199;SDS011;50516;52.272;5.136;2022-08-23T12:49:31;11.52;;;3.47;;
64199;SDS011;50516;52.272;5.136;2022-08-23T12:51:59;7.18;;;3.70;;
64199;SDS011;50516;52.272;5.136;2022-08-23T12:54:37;7.95;;;2.97;;
64199;SDS011;50516;52.272;5.136;2022-08-23T12:57:18;7.50;;;3.08;;
64199;SDS011;50516;52.272;5.136;2022-08-23T13:02:43;5.78;;;2.88;;
64199;SDS011;50516;52.272;5.136;2022-08-23T13:05:31;5.00;;;2.80;;
64199;SDS011;50516;52.272;5.136;2022-08-23T13:08:03;9.30;;;3.00;;
64199;SDS011;50516;52.272;5.136;2022-08-23T13:10:32;7.32;;;3.05;;
64199;SDS011;50516;52.272;5.136;2022-08-23T13:12:58;8.88;;;3.08;;
64199;SDS011;50516;52.272;5.136;2022-08-23T13:21:44;9.20;;;3.20;;
64199;SDS011;50516;52.272;5.136;2022-08-23T13:23:53;10.07;;;3.42;;
64199;SDS011;50516;52.272;5.136;2022-08-23T13:26:26;6.85;;;3.20;;
64199;SDS011;50516;52.272;5.136;2022-08-23T13:31:47;10.23;;;3.70;;
64199;SDS011;50516;52.272;5.136;2022-08-23T13:37:27;12.05;;;4.05;;
64199;SDS011;50516;52.272;5.136;2022-08-23T13:40:04;9.50;;;3.25;;
64199;SDS011;50516;52.272;5.136;2022-08-23T13:42:46;12.10;;;3.75;;
64199;SDS011;50516;52.272;5.136;2022-08-23T13:45:31;8.13;;;3.83;;
64199;SDS011;50516;52.272;5.136;2022-08-23T13:48:18;7.68;;;3.50;;
64199;SDS011;50516;52.272;5.136;2022-08-23T13:50:46;14.10;;;3.72;;
64199;SDS011;50516;52.272;5.136;2022-08-23T13:53:12;7.75;;;4.05;;
64199;SDS011;50516;52.272;5.136;2022-08-23T13:55:40;11.85;;;4.28;;
64199;SDS011;50516;52.272;5.136;2022-08-23T13:58:10;11.63;;;4.28;;
64199;SDS011;50516;52.272;5.136;2022-08-23T14:00:40;12.13;;;4.05;;
64199;SDS011;50516;52.272;5.136;2022-08-23T14:03:06;10.85;;;3.53;;
64199;SDS011;50516;52.272;5.136;2022-08-23T14:05:32;10.73;;;3.40;;
64199;SDS011;50516;52.272;5.136;2022-08-23T14:07:58;10.38;;;4.22;;
64199;SDS011;50516;52.272;5.136;2022-08-23T14:10:23;8.68;;;3.70;;
64199;SDS011;50516;52.272;5.136;2022-08-23T14:12:50;10.52;;;4.25;;
64199;SDS011;50516;52.272;5.136;2022-08-23T14:15:17;10.60;;;4.10;;
64199;SDS011;50516;52.272;5.136;2022-08-23T14:17:45;8.73;;;3.47;;
64199;SDS011;50516;52.272;5.136;2022-08-23T14:20:13;10.55;;;4.30;;
64199;SDS011;50516;52.272;5.136;2022-08-23T14:22:40;8.77;;;4.15;;
64199;SDS011;50516;52.272;5.136;2022-08-23T14:25:06;8.10;;;4.00;;
64199;SDS011;50516;52.272;5.136;2022-08-23T14:27:32;7.63;;;4.35;;
64199;SDS011;50516;52.272;5.136;2022-08-23T14:29:58;9.48;;;4.18;;
64199;SDS011;50516;52.272;5.136;2022-08-23T14:32:24;10.48;;;4.25;;
64199;SDS011;50516;52.272;5.136;2022-08-23T14:34:49;11.90;;;4.45;;
64199;SDS011;50516;52.272;5.136;2022-08-23T14:37:15;11.18;;;5.03;;
64199;SDS011;50516;52.272;5.136;2022-08-23T14:39:40;11.10;;;4.90;;
64199;SDS011;50516;52.272;5.136;2022-08-23T14:42:06;7.10;;;3.92;;
64199;SDS011;50516;52.272;5.136;2022-08-23T14:44:32;9.85;;;3.88;;
64199;SDS011;50516;52.272;5.136;2022-08-23T14:46:57;10.73;;;3.30;;
64199;SDS011;50516;52.272;5.136;2022-08-23T14:49:22;10.43;;;3.70;;
64199;SDS011;50516;52.272;5.136;2022-08-23T14:51:48;6.78;;;3.15;;
64199;SDS011;50516;52.272;5.136;2022-08-23T14:54:16;7.90;;;3.65;;
64199;SDS011;50516;52.272;5.136;2022-08-23T14:56:47;10.48;;;4.10;;
64199;SDS011;50516;52.272;5.136;2022-08-23T14:59:12;12.50;;;3.97;;
64199;SDS011;50516;52.272;5.136;2022-08-23T15:01:38;9.75;;;3.85;;
64199;SDS011;50516;52.272;5.136;2022-08-23T15:04:04;10.50;;;4.40;;
64199;SDS011;50516;52.272;5.136;2022-08-23T15:06:30;12.43;;;3.08;;
64199;SDS011;50516;52.272;5.136;2022-08-23T15:08:55;9.70;;;3.50;;
64199;SDS011;50516;52.272;5.136;2022-08-23T15:11:20;8.52;;;3.63;;
64199;SDS011;50516;52.272;5.136;2022-08-23T15:13:46;9.63;;;4.25;;
64199;SDS011;50516;52.272;5.136;2022-08-23T15:16:13;9.98;;;4.55;;
64199;SDS011;50516;52.272;5.136;2022-08-23T15:18:42;7.93;;;3.92;;
64199;SDS011;50516;52.272;5.136;2022-08-23T15:21:10;7.00;;;3.50;;
64199;SDS011;50516;52.272;5.136;2022-08-23T15:23:35;9.68;;;3.50;;
64199;SDS011;50516;52.272;5.136;2022-08-23T15:26:00;7.47;;;3.53;;
64199;SDS011;50516;52.272;5.136;2022-08-23T15:28:26;7.15;;;3.70;;
64199;SDS011;50516;52.272;5.136;2022-08-23T15:30:51;9.15;;;3.35;;
64199;SDS011;50516;52.272;5.136;2022-08-23T15:33:17;8.73;;;3.70;;
64199;SDS011;50516;52.272;5.136;2022-08-23T15:35:44;12.00;;;4.28;;
64199;SDS011;50516;52.272;5.136;2022-08-23T15:38:13;8.32;;;3.33;;
64199;SDS011;50516;52.272;5.136;2022-08-23T15:40:39;13.77;;;3.97;;
64199;SDS011;50516;52.272;5.136;2022-08-23T15:43:05;14.93;;;5.40;;
64199;SDS011;50516;52.272;5.136;2022-08-23T15:45:30;8.52;;;3.97;;
64199;SDS011;50516;52.272;5.136;2022-08-23T15:47:57;10.27;;;4.03;;
64199;SDS011;50516;52.272;5.136;2022-08-23T15:50:26;9.45;;;3.60;;
64199;SDS011;50516;52.272;5.136;2022-08-23T15:52:54;11.23;;;4.45;;
64199;SDS011;50516;52.272;5.136;2022-08-23T15:55:20;13.18;;;4.53;;
64199;SDS011;50516;52.272;5.136;2022-08-23T15:57:47;8.20;;;4.38;;
64199;SDS011;50516;52.272;5.136;2022-08-23T16:00:16;7.78;;;4.53;;
64199;SDS011;50516;52.272;5.136;2022-08-23T16:02:44;8.05;;;3.70;;
64199;SDS011;50516;52.272;5.136;2022-08-23T16:05:10;11.23;;;4.05;;
64199;SDS011;50516;52.272;5.136;2022-08-23T16:07:37;9.95;;;4.60;;
64199;SDS011;50516;52.272;5.136;2022-08-23T16:10:06;9.80;;;4.50;;
64199;SDS011;50516;52.272;5.136;2022-08-23T16:12:36;8.57;;;3.83;;
64199;SDS011;50516;52.272;5.136;2022-08-23T16:15:01;9.18;;;4.43;;
64199;SDS011;50516;52.272;5.136;2022-08-23T16:17:26;12.77;;;5.55;;
64199;SDS011;50516;52.272;5.136;2022-08-23T16:19:52;10.05;;;4.53;;
64199;SDS011;50516;52.272;5.136;2022-08-23T16:22:18;11.68;;;3.58;;
64199;SDS011;50516;52.272;5.136;2022-08-23T16:24:43;6.57;;;3.70;;
64199;SDS011;50516;52.272;5.136;2022-08-23T16:27:09;8.65;;;4.15;;
64199;SDS011;50516;52.272;5.136;2022-08-23T16:29:34;8.38;;;4.03;;
64199;SDS011;50516;52.272;5.136;2022-08-23T16:32:00;10.45;;;4.07;;
64199;SDS011;50516;52.272;5.136;2022-08-23T16:34:30;6.50;;;3.85;;
64199;SDS011;50516;52.272;5.136;2022-08-23T16:36:57;7.20;;;4.03;;